Time;durP1;ratioP1;P1;durP2;ratioP2;P2;SDS_P1;SDS_P2;PMS_P1;PMS_P2;Temp;Humidity;BMP_temperature;BMP_pressure;BME280_temperature;BME280_humidity;BME280_pressure;Samples;Min_cycle;Max_cycle;Signal;HPM_P1;HPM_P2
2022/10/24 00:00:48;;;;;;;26.70;6.70;;;12.10;99.90;;;;;;5060883;28;20483;-83
2022/10/24 00:03:15;;;;;;;28.08;6.50;;;12.10;99.90;;;;;;5086316;28;20027;-84
2022/10/24 00:05:41;;;;;;;24.52;6.72;;;12.10;99.90;;;;;;5074911;28;20036;-84
2022/10/24 00:08:08;;;;;;;27.17;6.57;;;12.10;99.90;;;;;;5080167;28;20112;-84
2022/10/24 00:10:35;;;;;;;22.15;6.18;;;12.10;99.90;;;;;;5058333;28;20029;-84
2022/10/24 00:13:19;;;;;;;24.08;6.18;;;12.20;99.90;;;;;;5078151;28;20020;-84
2022/10/24 00:15:47;;;;;;;20.08;7.00;;;12.40;99.90;;;;;;5061231;28;20029;-84
2022/10/24 00:18:13;;;;;;;19.08;5.45;;;12.40;99.90;;;;;;5062030;28;20039;-84
2022/10/24 00:20:39;;;;;;;18.90;5.78;;;12.50;99.90;;;;;;5063857;28;20426;-83
2022/10/24 00:23:05;;;;;;;17.55;5.57;;;12.50;99.90;;;;;;5079506;28;20024;-83
2022/10/24 00:25:30;;;;;;;20.08;6.00;;;12.60;99.90;;;;;;5081158;28;20080;-84
2022/10/24 00:27:56;;;;;;;20.38;5.63;;;12.70;99.90;;;;;;5081033;28;20088;-84
2022/10/24 00:30:22;;;;;;;23.83;5.97;;;12.60;99.90;;;;;;5074994;28;20652;-84
2022/10/24 00:32:50;;;;;;;20.58;5.53;;;12.80;99.90;;;;;;5079423;28;20384;-84
2022/10/24 00:35:16;;;;;;;21.13;6.47;;;12.90;99.90;;;;;;5062227;28;20127;-84
2022/10/24 00:37:41;;;;;;;14.75;4.50;;;13.20;99.90;;;;;;5082242;28;20477;-84
2022/10/24 00:40:09;;;;;;;20.75;5.38;;;13.20;99.90;;;;;;5080319;28;20043;-84
2022/10/24 00:42:35;;;;;;;16.10;4.90;;;13.30;99.90;;;;;;5056967;28;20020;-83
2022/10/24 00:45:30;;;;;;;14.77;4.03;;;13.30;99.90;;;;;;5080749;28;20382;-84
2022/10/24 00:47:56;;;;;;;18.25;4.18;;;13.30;99.90;;;;;;5076178;28;20471;-84
2022/10/24 00:54:12;;;;;;;16.40;4.25;;;13.30;99.90;;;;;;5076598;28;20039;-84
2022/10/24 00:56:49;;;;;;;16.10;4.47;;;13.20;99.90;;;;;;5074316;28;20037;-84
2022/10/24 01:00:11;;;;;;;15.82;4.57;;;13.20;99.90;;;;;;5083377;28;20032;-84
2022/10/24 01:02:37;;;;;;;;;;;13.10;99.90;;;;;;5068741;28;20120;-84
2022/10/24 01:05:04;;;;;;;13.40;4.32;;;13.00;99.90;;;;;;5059026;28;19950;-84
2022/10/24 01:07:50;;;;;;;14.90;4.43;;;12.90;99.90;;;;;;5084431;28;20024;-84
2022/10/24 01:10:37;;;;;;;15.27;3.92;;;12.80;99.90;;;;;;5053384;28;20025;-83
2022/10/24 01:13:06;;;;;;;16.73;4.25;;;12.60;99.90;;;;;;5057800;28;20024;-83
2022/10/24 01:15:48;;;;;;;14.90;4.93;;;12.50;99.90;;;;;;5070957;28;20452;-84
2022/10/24 01:18:18;;;;;;;24.35;5.55;;;12.30;99.90;;;;;;5067278;28;20031;-84
2022/10/24 01:21:02;;;;;;;15.90;4.30;;;12.40;99.90;;;;;;5074967;28;20035;-84
2022/10/24 01:23:55;;;;;;;21.67;5.35;;;12.40;99.90;;;;;;5072104;28;20028;-83
2022/10/24 01:26:44;;;;;;;26.33;4.97;;;12.40;99.90;;;;;;5061279;28;20024;-84
2022/10/24 01:29:22;;;;;;;17.45;4.57;;;12.50;99.90;;;;;;5076533;28;20028;-83
2022/10/24 01:31:47;;;;;;;23.00;4.85;;;12.60;99.90;;;;;;5060762;28;20035;-84
2022/10/24 01:34:25;;;;;;;20.88;5.25;;;12.70;99.90;;;;;;5079008;28;20362;-83
2022/10/24 01:37:05;;;;;;;27.25;4.53;;;12.70;99.90;;;;;;5061211;28;20085;-84
2022/10/24 01:39:37;;;;;;;12.18;3.88;;;12.70;99.90;;;;;;5069030;28;20021;-84
2022/10/24 01:42:04;;;;;;;;;;;12.70;99.90;;;;;;5074883;28;20025;-84
2022/10/24 01:44:37;;;;;;;23.42;4.13;;;12.80;99.90;;;;;;5069606;28;19913;-83
2022/10/24 01:47:09;;;;;;;11.15;4.60;;;12.70;99.90;;;;;;5072011;28;20029;-84
2022/10/24 01:49:37;;;;;;;28.40;4.18;;;12.70;99.90;;;;;;5071161;28;20130;-84
2022/10/24 01:52:06;;;;;;;19.52;4.13;;;12.80;99.90;;;;;;5069705;28;20123;-84
2022/10/24 01:54:34;;;;;;;16.23;4.18;;;12.80;99.90;;;;;;5054681;28;20530;-84
2022/10/24 01:57:01;;;;;;;22.00;4.20;;;12.80;99.90;;;;;;5075865;28;20024;-83
2022/10/24 01:59:29;;;;;;;25.52;4.60;;;12.90;99.90;;;;;;5080587;28;20054;-84
2022/10/24 02:02:15;;;;;;;23.02;4.43;;;13.00;99.90;;;;;;5080060;28;20020;-84
2022/10/24 02:04:50;;;;;;;20.92;4.13;;;13.00;99.90;;;;;;5058196;28;20118;-83
2022/10/24 02:07:19;;;;;;;14.63;3.53;;;12.90;99.90;;;;;;5076011;28;20020;-84
2022/10/24 02:09:49;;;;;;;9.88;3.22;;;12.90;99.90;;;;;;5058912;28;20024;-84
2022/10/24 02:12:18;;;;;;;30.30;3.65;;;12.90;99.90;;;;;;5077372;28;20020;-84
2022/10/24 02:14:52;;;;;;;17.27;3.55;;;12.90;99.90;;;;;;5078155;28;20024;-84
2022/10/24 02:17:18;;;;;;;17.75;3.75;;;12.90;99.90;;;;;;5079901;28;20029;-83
2022/10/24 02:19:45;;;;;;;16.17;3.63;;;12.80;99.90;;;;;;5061815;28;20039;-83
2022/10/24 02:22:48;;;;;;;32.13;3.60;;;12.70;99.90;;;;;;5052205;28;20128;-84
2022/10/24 02:25:30;;;;;;;13.80;3.05;;;12.60;99.90;;;;;;5078987;28;20021;-83
2022/10/24 02:28:01;;;;;;;11.50;3.50;;;12.40;99.90;;;;;;5059233;28;20067;-83
2022/10/24 02:30:28;;;;;;;18.20;3.92;;;12.40;99.90;;;;;;5060800;28;20424;-84
2022/10/24 02:32:57;;;;;;;19.30;3.97;;;12.30;99.90;;;;;;5076170;28;20032;-83
2022/10/24 02:35:29;;;;;;;11.63;3.40;;;12.30;99.90;;;;;;5064437;28;20051;-83
2022/10/24 02:38:32;;;;;;;17.05;3.70;;;12.40;99.90;;;;;;5077219;28;20032;-84
2022/10/24 02:41:45;;;;;;;13.60;3.05;;;12.50;99.90;;;;;;5052517;28;20424;-84
2022/10/24 02:44:14;;;;;;;12.32;2.85;;;12.70;99.90;;;;;;5069056;28;20036;-83
2022/10/24 02:46:41;;;;;;;9.85;3.22;;;12.70;99.90;;;;;;5082715;28;20399;-84
2022/10/24 02:49:07;;;;;;;9.05;2.83;;;12.80;99.90;;;;;;5055626;28;20024;-84
2022/10/24 02:51:37;;;;;;;13.98;3.47;;;12.90;99.90;;;;;;5083231;28;20128;-84
2022/10/24 02:54:03;;;;;;;10.00;3.08;;;13.10;99.90;;;;;;5058239;28;20028;-84
2022/10/24 02:56:30;;;;;;;10.63;2.55;;;13.30;99.90;;;;;;5067959;28;20534;-83
2022/10/24 02:58:56;;;;;;;20.17;3.35;;;13.40;99.90;;;;;;5082481;28;20024;-84
2022/10/24 03:01:22;;;;;;;11.65;2.90;;;13.50;99.90;;;;;;5084635;28;20074;-83
2022/10/24 03:03:47;;;;;;;15.80;3.55;;;13.60;99.90;;;;;;5078606;28;20128;-84
2022/10/24 03:06:13;;;;;;;9.10;2.63;;;13.50;99.90;;;;;;5078929;28;20028;-83
2022/10/24 03:08:39;;;;;;;15.52;2.97;;;13.50;99.90;;;;;;5079433;28;20024;-84
2022/10/24 03:11:05;;;;;;;8.88;2.78;;;13.50;99.90;;;;;;5079273;28;20070;-83
2022/10/24 03:13:31;;;;;;;9.65;2.90;;;13.50;99.90;;;;;;5079513;28;20037;-84
2022/10/24 03:15:57;;;;;;;12.35;3.30;;;13.40;99.90;;;;;;5080294;28;20039;-84
2022/10/24 03:18:23;;;;;;;15.52;3.22;;;13.30;99.90;;;;;;5084350;28;20025;-83
2022/10/24 03:20:49;;;;;;;15.55;2.50;;;13.30;99.90;;;;;;5078460;28;20048;-83
2022/10/24 03:23:15;;;;;;;14.00;3.15;;;13.20;99.90;;;;;;5061429;28;20028;-84
2022/10/24 03:25:41;;;;;;;9.20;2.42;;;13.20;99.90;;;;;;5077256;28;20114;-84
2022/10/24 03:28:07;;;;;;;6.20;2.33;;;13.10;99.90;;;;;;5062397;28;20082;-83
2022/10/24 03:30:33;;;;;;;8.20;2.22;;;13.00;99.90;;;;;;5079093;28;20025;-84
2022/10/24 03:32:59;;;;;;;14.50;2.63;;;13.00;99.90;;;;;;5079710;28;20034;-84
2022/10/24 03:35:25;;;;;;;11.20;3.10;;;13.10;99.90;;;;;;5066554;28;20024;-84
2022/10/24 03:37:51;;;;;;;14.93;3.05;;;13.10;99.90;;;;;;5078966;28;20043;-84
2022/10/24 03:40:16;;;;;;;16.02;2.40;;;13.10;99.90;;;;;;5060540;28;20115;-84
2022/10/24 03:42:42;;;;;;;11.32;2.33;;;13.10;99.90;;;;;;5077433;28;20033;-83
2022/10/24 03:45:08;;;;;;;16.60;2.92;;;13.10;99.90;;;;;;5078804;28;20020;-83
2022/10/24 03:47:34;;;;;;;10.73;2.67;;;13.20;99.90;;;;;;5078817;28;20472;-83
2022/10/24 03:49:59;;;;;;;17.13;3.10;;;13.20;99.90;;;;;;5079196;28;20024;-83
2022/10/24 03:52:25;;;;;;;14.38;3.00;;;13.10;99.90;;;;;;5065837;28;20024;-83
2022/10/24 03:54:51;;;;;;;14.45;2.67;;;13.10;99.90;;;;;;5078821;28;20479;-83
2022/10/24 03:57:16;;;;;;;21.33;3.08;;;13.10;99.90;;;;;;5077158;28;20016;-83
2022/10/24 03:59:42;;;;;;;10.88;2.67;;;13.10;99.90;;;;;;5081697;28;20028;-83
2022/10/24 04:02:08;;;;;;;11.95;2.78;;;13.10;99.90;;;;;;5082398;28;20036;-84
2022/10/24 04:04:34;;;;;;;12.55;2.90;;;13.10;99.90;;;;;;5080586;28;20145;-83
2022/10/24 04:06:59;;;;;;;14.05;3.58;;;13.10;99.90;;;;;;5059117;28;20035;-83
2022/10/24 04:09:56;;;;;;;16.88;3.80;;;13.20;99.90;;;;;;5063360;28;20028;-83
2022/10/24 04:12:23;;;;;;;11.50;3.63;;;13.30;99.90;;;;;;5064382;28;20479;-84
2022/10/24 04:14:49;;;;;;;20.27;3.65;;;13.30;99.90;;;;;;5079686;28;20020;-82
2022/10/24 04:17:14;;;;;;;7.88;3.80;;;13.30;99.90;;;;;;5081003;28;20080;-84
2022/10/24 04:19:40;;;;;;;19.02;3.58;;;13.30;99.90;;;;;;5080685;28;20410;-83
2022/10/24 04:22:06;;;;;;;11.82;3.03;;;13.30;99.90;;;;;;5071532;28;20052;-83
2022/10/24 04:24:32;;;;;;;11.60;5.15;;;13.20;99.90;;;;;;5078308;28;20028;-84
2022/10/24 04:26:57;;;;;;;10.13;3.13;;;13.10;99.90;;;;;;5058492;28;20024;-83
2022/10/24 04:29:23;;;;;;;14.30;3.22;;;13.00;99.90;;;;;;5081284;28;20455;-85
2022/10/24 04:31:49;;;;;;;23.98;4.00;;;12.80;99.90;;;;;;5060759;28;20047;-83
2022/10/24 04:34:15;;;;;;;11.02;3.67;;;12.70;99.90;;;;;;5079896;28;20047;-83
2022/10/24 04:36:40;;;;;;;19.58;3.90;;;12.60;99.90;;;;;;5063388;28;20528;-83
2022/10/24 04:39:06;;;;;;;18.48;4.22;;;12.50;99.90;;;;;;5071755;28;20033;-83
2022/10/24 04:41:32;;;;;;;16.35;3.85;;;12.30;99.90;;;;;;5081331;28;20056;-84
2022/10/24 04:43:58;;;;;;;19.67;3.58;;;12.20;99.90;;;;;;5061678;28;20024;-84
2022/10/24 04:46:23;;;;;;;17.90;3.75;;;12.10;99.90;;;;;;5070127;28;20723;-84
2022/10/24 04:48:49;;;;;;;14.88;4.35;;;12.00;99.90;;;;;;5057958;28;20028;-84
2022/10/24 04:51:15;;;;;;;14.48;4.40;;;12.00;99.90;;;;;;5079653;28;20028;-84
2022/10/24 04:53:40;;;;;;;20.05;4.78;;;12.00;99.90;;;;;;5063386;28;20429;-85
2022/10/24 04:56:06;;;;;;;18.23;5.03;;;12.00;99.90;;;;;;5060865;28;20025;-84
2022/10/24 04:58:32;;;;;;;16.63;4.03;;;12.00;99.90;;;;;;5063075;28;20476;-84
2022/10/24 05:00:58;;;;;;;15.73;4.60;;;11.90;99.90;;;;;;5070622;28;20034;-83
2022/10/24 05:03:45;;;;;;;23.52;3.78;;;11.90;99.90;;;;;;5055977;28;20017;-84
2022/10/24 05:09:58;;;;;;;16.63;4.32;;;11.90;99.90;;;;;;5063048;28;20075;-84
2022/10/24 05:12:24;;;;;;;20.27;9.35;;;11.90;99.90;;;;;;5073753;28;20084;-84
2022/10/24 05:14:50;;;;;;;32.90;11.10;;;11.90;99.90;;;;;;5077784;28;20028;-83
2022/10/24 05:17:15;;;;;;;19.23;8.50;;;12.00;99.90;;;;;;5096347;28;20051;-84
2022/10/24 05:19:41;;;;;;;23.08;6.28;;;12.00;99.90;;;;;;5079199;28;20028;-83
2022/10/24 05:22:07;;;;;;;15.70;5.20;;;11.90;99.90;;;;;;5067091;28;20533;-84
2022/10/24 05:24:33;;;;;;;23.17;5.00;;;11.90;99.90;;;;;;5087394;28;20024;-84
2022/10/24 05:26:58;;;;;;;18.20;4.85;;;12.00;99.90;;;;;;5066153;28;20046;-83
2022/10/24 05:29:24;;;;;;;11.80;4.15;;;12.00;99.90;;;;;;5077761;28;20032;-84
2022/10/24 05:31:50;;;;;;;19.05;5.35;;;12.00;99.90;;;;;;5051738;28;20040;-84
2022/10/24 05:34:16;;;;;;;24.85;4.55;;;12.10;99.90;;;;;;5065431;28;20025;-84
2022/10/24 05:36:42;;;;;;;14.20;4.35;;;12.10;99.90;;;;;;5078250;28;20033;-84
2022/10/24 05:39:08;;;;;;;21.50;5.20;;;12.20;99.90;;;;;;5076804;28;20089;-84
2022/10/24 05:41:33;;;;;;;25.90;4.78;;;12.30;99.90;;;;;;5062469;28;20062;-84
2022/10/24 05:43:59;;;;;;;22.42;4.43;;;12.50;99.90;;;;;;5066276;28;20111;-83
2022/10/24 05:46:25;;;;;;;16.40;4.72;;;12.60;99.90;;;;;;5065085;28;20024;-84
2022/10/24 05:48:51;;;;;;;18.05;4.93;;;12.60;99.90;;;;;;5082206;28;20128;-85
2022/10/24 05:51:17;;;;;;;16.02;3.78;;;12.60;99.90;;;;;;5066890;28;20071;-84
2022/10/24 05:53:43;;;;;;;15.07;4.40;;;12.70;99.90;;;;;;5063755;28;20039;-85
2022/10/24 05:56:09;;;;;;;23.48;4.70;;;12.60;99.90;;;;;;5056640;28;20028;-84
2022/10/24 05:58:34;;;;;;;17.25;4.60;;;12.70;99.90;;;;;;5062054;28;20056;-84
2022/10/24 06:01:00;;;;;;;30.45;6.20;;;12.70;99.90;;;;;;5074543;28;20017;-87
2022/10/24 06:03:26;;;;;;;15.60;4.88;;;12.70;99.90;;;;;;5050149;28;20364;-87
2022/10/24 06:05:51;;;;;;;15.55;4.35;;;12.70;99.90;;;;;;5070925;28;20476;-88
2022/10/24 06:08:17;;;;;;;18.67;5.50;;;12.60;99.90;;;;;;5073465;28;20024;-87
2022/10/24 06:10:47;;;;;;;18.88;5.00;;;12.60;99.90;;;;;;5056159;28;20374;-87
2022/10/24 06:13:14;;;;;;;24.58;5.30;;;12.60;99.90;;;;;;5053776;28;20028;-87
2022/10/24 06:15:43;;;;;;;21.77;5.20;;;12.60;99.90;;;;;;5072081;28;20033;-86
2022/10/24 06:18:09;;;;;;;19.90;4.90;;;12.60;99.90;;;;;;5058043;28;20036;-87
2022/10/24 06:20:36;;;;;;;26.65;7.25;;;12.60;99.90;;;;;;5083958;28;20032;-86
2022/10/24 06:23:02;;;;;;;22.60;5.35;;;12.60;99.90;;;;;;5073783;28;20032;-87
2022/10/24 06:25:27;;;;;;;15.88;5.05;;;12.70;99.90;;;;;;5083510;28;20032;-87
2022/10/24 06:27:53;;;;;;;20.15;5.53;;;12.70;99.90;;;;;;5060974;28;20059;-87
2022/10/24 06:34:06;;;;;;;22.15;5.97;;;12.70;99.90;;;;;;5065744;28;20580;-87
2022/10/24 06:36:32;;;;;;;27.80;5.30;;;12.70;99.90;;;;;;5075483;28;20041;-87
2022/10/24 06:38:58;;;;;;;18.58;5.82;;;12.70;99.90;;;;;;5067607;28;20119;-87
2022/10/24 06:41:23;;;;;;;22.23;5.75;;;12.70;99.90;;;;;;5065350;28;20472;-89
2022/10/24 06:43:52;;;;;;;11.90;4.80;;;12.70;99.90;;;;;;5071394;28;20035;-87
2022/10/24 06:46:22;;;;;;;15.20;4.47;;;12.70;99.90;;;;;;5066072;28;20490;-87
2022/10/24 06:48:52;;;;;;;17.92;5.00;;;12.70;99.90;;;;;;5058912;28;20037;-88
2022/10/24 06:51:18;;;;;;;16.55;5.25;;;12.70;99.90;;;;;;5066602;28;20032;-88
2022/10/24 06:53:43;;;;;;;18.55;6.22;;;12.70;99.90;;;;;;5075516;28;20036;-88
2022/10/24 06:56:09;;;;;;;30.58;7.03;;;12.70;99.90;;;;;;5067351;28;20544;-87
2022/10/24 06:58:36;;;;;;;22.83;6.03;;;12.80;99.90;;;;;;5057898;28;20371;-88
2022/10/24 07:01:10;;;;;;;16.27;6.00;;;12.80;99.90;;;;;;5073745;28;20035;-87
2022/10/24 07:03:36;;;;;;;25.55;5.25;;;12.90;99.90;;;;;;5062692;28;20036;-88
2022/10/24 07:06:13;;;;;;;22.58;5.60;;;12.90;99.90;;;;;;5079779;28;20026;-89
2022/10/24 07:08:39;;;;;;;30.63;6.32;;;13.00;99.90;;;;;;5079827;28;20029;-88
2022/10/24 07:11:05;;;;;;;21.17;5.32;;;13.00;99.90;;;;;;5078479;28;20541;-87
2022/10/24 07:17:19;;;;;;;17.15;5.45;;;13.00;99.90;;;;;;5072409;28;20027;-88
2022/10/24 07:19:44;;;;;;;25.17;5.68;;;13.00;99.90;;;;;;5072645;28;20106;-87
2022/10/24 07:22:20;;;;;;;19.27;4.97;;;13.00;99.90;;;;;;5081187;28;20115;-87
2022/10/24 07:24:50;;;;;;;24.02;6.28;;;13.00;99.90;;;;;;5081929;28;20103;-87
2022/10/24 07:27:16;;;;;;;17.50;4.82;;;13.00;99.90;;;;;;5061949;28;20035;-86
2022/10/24 07:29:41;;;;;;;24.52;5.90;;;12.90;99.90;;;;;;5091418;28;20036;-87
2022/10/24 07:32:07;;;;;;;18.27;5.45;;;12.90;99.90;;;;;;5078725;28;20348;-86
2022/10/24 07:34:34;;;;;;;23.23;5.90;;;12.90;99.90;;;;;;5072700;28;20033;-87
2022/10/24 07:36:59;;;;;;;18.92;5.68;;;12.90;99.90;;;;;;5087606;28;20025;-87
2022/10/24 07:39:25;;;;;;;21.45;5.03;;;12.80;99.90;;;;;;5073251;28;20112;-87
2022/10/24 07:42:34;;;;;;;24.17;5.97;;;12.80;99.90;;;;;;5088739;28;20024;-87
2022/10/24 07:45:02;;;;;;;18.05;5.80;;;12.80;99.90;;;;;;5050164;28;20492;-87
2022/10/24 07:47:27;;;;;;;22.13;5.68;;;12.80;99.90;;;;;;5067309;28;20081;-87
2022/10/24 07:49:53;;;;;;;21.10;6.82;;;12.80;99.90;;;;;;5080741;28;20114;-87
2022/10/24 07:52:31;;;;;;;19.25;6.60;;;12.90;99.90;;;;;;5078526;28;20028;-87
2022/10/24 07:54:57;;;;;;;13.90;5.65;;;12.90;99.90;;;;;;5071130;28;20016;-87
2022/10/24 07:58:14;;;;;;;17.85;5.53;;;12.90;99.90;;;;;;5062899;28;20031;-87
2022/10/24 08:00:39;;;;;;;21.15;6.10;;;12.90;99.90;;;;;;5070864;28;20059;-87
2022/10/24 08:03:06;;;;;;;17.80;6.10;;;13.00;99.90;;;;;;5077592;28;20048;-87
2022/10/24 08:05:32;;;;;;;18.67;6.05;;;13.00;99.90;;;;;;5105141;27;20446;-86
2022/10/24 08:07:57;;;;;;;29.20;7.35;;;13.00;99.90;;;;;;5086316;28;20029;-87
2022/10/24 08:10:23;;;;;;;13.23;5.88;;;13.10;99.90;;;;;;5072138;28;20357;-86
2022/10/24 08:12:49;;;;;;;27.02;5.63;;;13.10;99.90;;;;;;5087231;28;20028;-87
2022/10/24 08:15:15;;;;;;;21.75;6.10;;;13.20;99.90;;;;;;5074880;28;20025;-87
2022/10/24 08:17:40;;;;;;;19.23;5.18;;;13.20;99.90;;;;;;5087658;28;20028;-86
2022/10/24 08:20:07;;;;;;;20.35;5.53;;;13.30;99.90;;;;;;5063650;28;20380;-86
2022/10/24 08:22:34;;;;;;;16.17;5.70;;;13.50;99.90;;;;;;5071470;28;20021;-87
2022/10/24 08:25:00;;;;;;;20.83;7.85;;;13.70;99.90;;;;;;5086709;28;20035;-86
2022/10/24 08:27:26;;;;;;;24.52;7.25;;;13.90;99.90;;;;;;5071655;28;20059;-88
2022/10/24 08:29:52;;;;;;;22.33;4.43;;;14.00;99.90;;;;;;5086104;28;20025;-87
2022/10/24 08:32:18;;;;;;;17.35;5.30;;;13.90;99.90;;;;;;5056556;28;20546;-86
2022/10/24 08:34:43;;;;;;;14.63;5.85;;;13.90;99.90;;;;;;5071821;28;20062;-86
2022/10/24 08:37:09;;;;;;;16.00;5.80;;;14.00;99.90;;;;;;5059994;28;20021;-87
2022/10/24 08:39:36;;;;;;;28.33;6.25;;;14.10;99.90;;;;;;5071807;28;20021;-87
2022/10/24 08:42:06;;;;;;;22.58;4.60;;;14.10;99.90;;;;;;5067831;28;20030;-87
2022/10/24 08:44:46;;;;;;;23.83;7.88;;;14.00;99.90;;;;;;5071498;28;20029;-87
2022/10/24 08:47:41;;;;;;;24.77;6.13;;;14.00;99.90;;;;;;5083698;28;20473;-88
2022/10/24 08:50:53;;;;;;;25.52;7.32;;;14.10;99.90;;;;;;5056491;28;20024;-86
2022/10/24 08:53:29;;;;;;;20.27;5.30;;;14.10;99.90;;;;;;5081248;28;20024;-87
2022/10/24 08:55:58;;;;;;;28.95;9.00;;;14.10;99.90;;;;;;5072807;28;20025;-87
2022/10/24 08:58:29;;;;;;;24.88;6.57;;;14.00;99.90;;;;;;5073908;28;20509;-86
2022/10/24 09:01:01;;;;;;;15.38;6.07;;;13.90;99.90;;;;;;5071663;28;20048;-87
2022/10/24 09:03:40;;;;;;;17.80;7.03;;;14.00;99.90;;;;;;5055588;28;20090;-88
2022/10/24 09:06:15;;;;;;;14.98;5.35;;;14.00;99.90;;;;;;5054310;28;20035;-87
2022/10/24 09:08:57;;;;;;;15.60;4.70;;;14.00;99.90;;;;;;5058921;28;20037;-87
2022/10/24 09:11:25;;;;;;;22.20;5.57;;;14.10;99.90;;;;;;5060241;28;20040;-87
2022/10/24 09:13:51;;;;;;;18.17;4.60;;;14.10;99.90;;;;;;5079475;28;20036;-88
2022/10/24 09:16:21;;;;;;;16.15;4.53;;;14.10;99.90;;;;;;5078608;28;20028;-87
2022/10/24 09:18:50;;;;;;;13.48;4.10;;;14.30;99.90;;;;;;5081728;28;20407;-87
2022/10/24 09:21:16;;;;;;;18.17;5.18;;;14.40;99.90;;;;;;5080309;28;20455;-88
2022/10/24 09:23:42;;;;;;;21.20;4.40;;;14.50;99.90;;;;;;5054880;28;20079;-87
2022/10/24 09:26:15;;;;;;;24.52;4.43;;;14.50;99.90;;;;;;5063072;28;20024;-87
2022/10/24 09:28:41;;;;;;;14.18;4.50;;;14.40;99.90;;;;;;5057076;28;20029;-88
2022/10/24 09:31:22;;;;;;;12.88;4.25;;;14.30;99.90;;;;;;5080764;28;20035;-88
2022/10/24 09:33:50;;;;;;;19.08;4.03;;;14.10;99.90;;;;;;5060105;28;20289;-89
2022/10/24 09:36:18;;;;;;;11.93;4.05;;;14.10;99.90;;;;;;5064547;28;20086;-87
2022/10/24 09:38:45;;;;;;;13.75;4.05;;;14.00;99.90;;;;;;5058265;28;20028;-87
2022/10/24 09:41:22;;;;;;;22.52;4.63;;;14.00;99.90;;;;;;5075441;28;20451;-87
2022/10/24 09:43:53;;;;;;;8.73;3.97;;;14.00;99.90;;;;;;5058629;28;20064;-87
2022/10/24 09:46:26;;;;;;;9.88;4.43;;;14.00;99.90;;;;;;5071826;28;20025;-87
2022/10/24 09:49:00;;;;;;;15.73;3.88;;;14.00;99.90;;;;;;5062617;28;20479;-86
2022/10/24 09:51:26;;;;;;;18.27;4.35;;;14.00;99.90;;;;;;5045609;28;20036;-87
2022/10/24 09:54:18;;;;;;;10.32;4.53;;;14.10;99.90;;;;;;5051893;28;20037;-86
2022/10/24 09:56:47;;;;;;;16.98;4.63;;;14.10;99.90;;;;;;5048063;28;20098;-87
2022/10/24 09:59:29;;;;;;;10.43;4.47;;;14.20;99.90;;;;;;5066368;28;20464;-88
2022/10/24 10:02:18;;;;;;;17.90;4.32;;;14.30;99.90;;;;;;5079422;28;20028;-87
2022/10/24 10:04:46;;;;;;;16.15;4.18;;;14.40;99.90;;;;;;5069291;28;20028;-87
2022/10/24 10:07:18;;;;;;;18.95;4.28;;;14.60;99.90;;;;;;5049294;28;20025;-87
2022/10/24 10:09:59;;;;;;;15.82;3.90;;;14.60;99.90;;;;;;5070460;28;20483;-87
2022/10/24 10:12:33;;;;;;;8.50;3.37;;;14.80;99.90;;;;;;5066255;28;20037;-86
2022/10/24 10:15:01;;;;;;;15.43;4.75;;;14.80;99.90;;;;;;5072025;28;20086;-87
2022/10/24 10:17:30;;;;;;;14.68;4.47;;;14.80;99.90;;;;;;5063584;28;20021;-86
2022/10/24 10:19:56;;;;;;;23.48;8.48;;;14.80;99.90;;;;;;5063990;28;20365;-88
2022/10/24 10:22:28;;;;;;;25.95;7.28;;;14.80;99.90;;;;;;5051811;28;20476;-86
2022/10/24 10:24:55;;;;;;;14.60;4.28;;;14.70;99.90;;;;;;5057487;28;20039;-86
2022/10/24 10:27:37;;;;;;;20.05;4.72;;;14.80;99.90;;;;;;5058956;28;20017;-86
2022/10/24 10:30:13;;;;;;;18.70;5.53;;;15.00;99.90;;;;;;5060420;28;20034;-87
2022/10/24 10:32:54;;;;;;;18.05;4.20;;;14.90;99.90;;;;;;5068164;28;20476;-87
2022/10/24 10:35:26;;;;;;;17.23;5.60;;;15.00;99.90;;;;;;5051409;28;20099;-87
2022/10/24 10:38:24;;;;;;;20.67;6.05;;;15.10;99.90;;;;;;5061879;28;20522;-86
2022/10/24 10:41:01;;;;;;;13.13;4.05;;;15.00;99.90;;;;;;5050595;28;20032;-87
2022/10/24 10:43:45;;;;;;;14.95;4.20;;;14.90;99.90;;;;;;5064366;28;20056;-87
2022/10/24 10:46:33;;;;;;;23.63;4.57;;;14.80;99.90;;;;;;5048471;28;20464;-86
2022/10/24 10:49:21;;;;;;;14.52;5.20;;;14.70;99.90;;;;;;5054957;28;20039;-87
2022/10/24 10:51:53;;;;;;;18.88;5.18;;;14.80;99.90;;;;;;5052902;28;20025;-85
2022/10/24 10:54:30;;;;;;;22.30;7.85;;;14.80;99.90;;;;;;5051968;28;20021;-86
2022/10/24 10:57:36;;;;;;;15.10;5.53;;;14.80;99.90;;;;;;5066659;28;20020;-87
2022/10/24 11:00:22;;;;;;;20.25;6.63;;;14.90;99.90;;;;;;5064538;28;20524;-86
2022/10/24 11:03:27;;;;;;;26.20;6.18;;;14.90;99.90;;;;;;5056627;28;20120;-86
2022/10/24 11:06:14;;;;;;;19.55;5.53;;;14.90;99.90;;;;;;5047056;28;20479;-87
2022/10/24 11:08:54;;;;;;;14.60;4.57;;;14.90;99.90;;;;;;5061409;28;20147;-87
2022/10/24 11:11:28;;;;;;;15.55;4.28;;;15.10;99.90;;;;;;5078469;28;20074;-87
2022/10/24 11:14:26;;;;;;;18.67;4.43;;;15.10;99.90;;;;;;5053169;28;20031;-87
2022/10/24 11:16:57;;;;;;;10.65;4.10;;;15.20;99.90;;;;;;5057146;28;20091;-87
2022/10/24 11:19:51;;;;;;;26.58;6.47;;;15.30;99.90;;;;;;5079146;28;20471;-87
2022/10/24 11:22:29;;;;;;;15.50;4.75;;;15.50;99.90;;;;;;5067077;28;20120;-86
2022/10/24 11:25:02;;;;;;;16.25;3.95;;;15.50;99.90;;;;;;5089986;28;20028;-87
2022/10/24 11:28:16;;;;;;;19.30;3.95;;;15.50;99.90;;;;;;5054596;28;20028;-86
2022/10/24 11:31:28;;;;;;;12.77;4.47;;;15.60;99.90;;;;;;5053303;28;20079;-87
2022/10/24 11:34:05;;;;;;;19.08;6.70;;;15.50;99.90;;;;;;5073721;28;20060;-86
2022/10/24 11:36:40;;;;;;;12.90;5.35;;;15.40;99.90;;;;;;5057071;28;20042;-86
2022/10/24 11:39:24;;;;;;;11.68;4.03;;;15.50;99.90;;;;;;5055168;28;20033;-87
2022/10/24 11:42:17;;;;;;;13.07;3.80;;;15.60;99.90;;;;;;5056409;28;20028;-86
2022/10/24 11:44:54;;;;;;;13.45;4.10;;;15.70;99.90;;;;;;5101336;28;20029;-86
2022/10/24 11:47:23;;;;;;;13.80;3.92;;;15.80;99.90;;;;;;5047692;28;20035;-86
2022/10/24 11:50:24;;;;;;;14.82;4.53;;;15.90;99.90;;;;;;5070151;28;20851;-86
2022/10/24 11:53:11;;;;;;;15.25;5.47;;;16.00;99.90;;;;;;5066319;28;20369;-86
2022/10/24 11:55:42;;;;;;;22.13;4.00;;;15.70;99.90;;;;;;5047975;28;20029;-86
2022/10/24 11:58:18;;;;;;;18.30;4.35;;;15.90;99.90;;;;;;5043017;28;20127;-87
2022/10/24 12:00:50;;;;;;;15.27;4.50;;;16.20;99.90;;;;;;5069736;28;20484;-87
2022/10/24 12:03:37;;;;;;;10.18;4.22;;;16.30;99.90;;;;;;5055866;28;20035;-86
2022/10/24 12:06:28;;;;;;;15.45;4.50;;;16.30;99.90;;;;;;5052013;28;20040;-86
2022/10/24 12:09:22;;;;;;;10.00;3.42;;;16.20;99.90;;;;;;5078428;28;20510;-86
2022/10/24 12:11:55;;;;;;;18.05;4.05;;;16.20;99.90;;;;;;5054994;28;20047;-87
2022/10/24 12:14:33;;;;;;;15.32;3.92;;;16.10;99.90;;;;;;5071549;28;20521;-86
2022/10/24 12:17:20;;;;;;;13.35;4.55;;;15.90;99.90;;;;;;5066163;28;20120;-87
2022/10/24 12:19:47;;;;;;;18.38;5.03;;;16.00;99.90;;;;;;5069344;28;20020;-86
2022/10/24 12:22:22;;;;;;;13.80;4.10;;;16.10;99.90;;;;;;5059108;28;20077;-86
2022/10/24 12:25:00;;;;;;;17.73;3.92;;;16.20;99.90;;;;;;5076561;28;20036;-87
2022/10/24 12:27:34;;;;;;;22.15;5.25;;;16.20;99.90;;;;;;5084953;28;20020;-87
2022/10/24 12:30:13;;;;;;;20.95;4.80;;;16.10;99.90;;;;;;5072143;28;20486;-87
2022/10/24 12:32:41;;;;;;;15.43;4.13;;;16.10;99.90;;;;;;5073012;28;20039;-87
2022/10/24 12:35:26;;;;;;;14.48;3.75;;;16.00;99.90;;;;;;5064177;28;20054;-87
2022/10/24 12:37:53;;;;;;;11.15;4.32;;;16.10;99.90;;;;;;5059039;28;20491;-87
2022/10/24 12:40:44;;;;;;;15.02;4.50;;;16.10;99.90;;;;;;5081587;28;20028;-87
2022/10/24 12:43:28;;;;;;;19.57;4.63;;;16.10;99.90;;;;;;5063196;28;20073;-86
2022/10/24 12:45:55;;;;;;;21.67;5.18;;;16.20;99.90;;;;;;5078728;28;20442;-87
2022/10/24 12:48:33;;;;;;;30.15;6.35;;;16.30;99.90;;;;;;5070423;28;20047;-87
2022/10/24 12:51:19;;;;;;;16.90;5.00;;;16.50;99.90;;;;;;5058606;28;20111;-88
2022/10/24 12:54:12;;;;;;;17.10;4.68;;;16.70;99.90;;;;;;5063597;28;20040;-86
2022/10/24 12:56:50;;;;;;;18.55;4.60;;;16.90;99.90;;;;;;5078883;28;20037;-87
2022/10/24 12:59:21;;;;;;;14.40;4.35;;;16.80;99.90;;;;;;5084478;28;20032;-87
2022/10/24 13:01:48;;;;;;;18.23;4.80;;;16.80;99.90;;;;;;5063249;28;20140;-87
2022/10/24 13:04:39;;;;;;;20.33;5.40;;;16.70;99.90;;;;;;5078799;28;20021;-87
2022/10/24 13:07:33;;;;;;;14.18;4.43;;;16.50;99.90;;;;;;5057102;28;20039;-87
2022/10/24 13:10:32;;;;;;;26.20;5.05;;;16.50;99.90;;;;;;5052897;28;20055;-87
2022/10/24 13:13:19;;;;;;;12.45;3.83;;;16.40;99.90;;;;;;5057569;28;20036;-87
2022/10/24 13:16:00;;;;;;;19.48;4.95;;;16.40;99.90;;;;;;5074884;28;20174;-87
2022/10/24 13:19:12;;;;;;;28.70;4.93;;;16.50;99.90;;;;;;5081675;28;20491;-87
2022/10/24 13:21:56;;;;;;;26.83;5.05;;;16.60;99.90;;;;;;5080439;28;20112;-87